Time;durP1;ratioP1;P1;durP2;ratioP2;P2;SDS_P1;SDS_P2;PMS_P1;PMS_P2;Temp;Humidity;BMP_temperature;BMP_pressure;BME280_temperature;BME280_humidity;BME280_pressure;Samples;Min_cycle;Max_cycle;Signal;HPM_P1;HPM_P2
2023/05/09 00:01:15;;;;;;;43.70;19.98;;;15.20;99.90;;;;;;5034829;28;20074;-74
2023/05/09 00:03:41;;;;;;;41.83;18.80;;;15.20;99.90;;;;;;5042342;28;20041;-73
2023/05/09 00:06:08;;;;;;;38.10;19.67;;;15.10;99.90;;;;;;5039713;28;20120;-72
2023/05/09 00:08:34;;;;;;;41.53;20.40;;;15.10;99.90;;;;;;5042152;28;20033;-76
2023/05/09 00:11:01;;;;;;;43.33;21.20;;;15.20;99.90;;;;;;5034629;28;20021;-72
2023/05/09 00:13:27;;;;;;;44.53;20.92;;;15.10;99.90;;;;;;5044297;28;20048;-73
2023/05/09 00:15:52;;;;;;;43.58;22.08;;;15.20;99.90;;;;;;5045595;28;20028;-73
2023/05/09 00:18:19;;;;;;;43.28;21.95;;;15.20;99.90;;;;;;5047554;28;20406;-72
2023/05/09 00:20:45;;;;;;;45.30;23.30;;;15.20;99.90;;;;;;5037029;28;20051;-73
2023/05/09 00:23:10;;;;;;;46.03;23.10;;;15.20;99.90;;;;;;5043413;28;20104;-75
2023/05/09 00:25:36;;;;;;;45.53;23.48;;;15.20;99.90;;;;;;5040833;28;20029;-73
2023/05/09 00:28:01;;;;;;;44.40;22.95;;;15.20;99.90;;;;;;5040741;28;20025;-73
2023/05/09 00:30:27;;;;;;;45.72;24.20;;;15.20;99.90;;;;;;5041280;28;20490;-72
2023/05/09 00:32:52;;;;;;;43.47;23.65;;;15.20;99.90;;;;;;5048903;28;20064;-74
2023/05/09 00:35:18;;;;;;;47.00;25.17;;;15.20;99.90;;;;;;5047172;28;20117;-73
2023/05/09 00:37:43;;;;;;;48.70;23.63;;;15.20;99.90;;;;;;5049021;28;20044;-72
2023/05/09 00:40:09;;;;;;;49.65;25.75;;;15.20;99.90;;;;;;5049335;28;20110;-73
2023/05/09 00:42:35;;;;;;;45.42;25.10;;;15.20;99.90;;;;;;5047928;28;20072;-73
2023/05/09 00:45:01;;;;;;;48.63;24.90;;;15.30;99.90;;;;;;5045968;28;20118;-73
2023/05/09 00:47:28;;;;;;;49.67;26.75;;;15.30;99.90;;;;;;5046137;28;20021;-73
2023/05/09 00:49:55;;;;;;;50.97;26.05;;;15.30;99.90;;;;;;5036149;28;20026;-77
2023/05/09 00:52:24;;;;;;;48.45;26.48;;;15.40;99.90;;;;;;5040637;28;20552;-76
2023/05/09 00:54:51;;;;;;;50.97;27.88;;;15.40;99.90;;;;;;5043704;28;20021;-73
2023/05/09 00:57:17;;;;;;;47.22;23.85;;;15.50;99.90;;;;;;5043072;28;20021;-73
2023/05/09 00:59:42;;;;;;;54.60;27.08;;;15.40;99.90;;;;;;5040647;28;20040;-74
2023/05/09 01:02:08;;;;;;;50.13;28.10;;;15.40;99.90;;;;;;5040766;28;20717;-73
2023/05/09 01:04:34;;;;;;;52.00;28.20;;;15.40;99.90;;;;;;5041423;28;20028;-74
2023/05/09 01:07:09;;;;;;;56.47;29.67;;;15.40;99.90;;;;;;5038021;28;20030;-73
2023/05/09 01:09:41;;;;;;;50.33;26.30;;;15.30;99.90;;;;;;5048397;28;20029;-76
2023/05/09 01:12:34;;;;;;;54.15;28.33;;;15.30;99.90;;;;;;5048857;28;20373;-74
2023/05/09 01:15:07;;;;;;;52.80;28.95;;;15.30;99.90;;;;;;5043737;28;20034;-72
2023/05/09 01:17:54;;;;;;;55.78;28.70;;;15.30;99.90;;;;;;5048151;28;20020;-73
2023/05/09 01:20:39;;;;;;;55.03;24.92;;;15.30;99.90;;;;;;5047956;28;20041;-75
2023/05/09 01:23:49;;;;;;;53.90;27.10;;;15.20;99.90;;;;;;5041068;28;20043;-76
2023/05/09 01:26:25;;;;;;;59.38;32.00;;;15.30;99.90;;;;;;5034959;28;20025;-74
2023/05/09 01:29:05;;;;;;;60.17;31.75;;;15.30;99.90;;;;;;5037930;28;20029;-72
2023/05/09 01:31:33;;;;;;;60.83;31.52;;;15.30;99.90;;;;;;5047589;28;20029;-72
2023/05/09 01:34:02;;;;;;;61.17;31.35;;;15.20;99.90;;;;;;5048586;28;20025;-72
2023/05/09 01:36:31;;;;;;;60.03;31.92;;;15.20;99.90;;;;;;5048100;28;20132;-76
2023/05/09 01:38:58;;;;;;;59.30;31.60;;;15.20;99.90;;;;;;5039161;28;20021;-74
2023/05/09 01:41:29;;;;;;;56.42;29.35;;;15.10;99.90;;;;;;5046656;28;20462;-73
2023/05/09 01:43:58;;;;;;;62.45;31.27;;;15.10;99.90;;;;;;5048156;28;20324;-73
2023/05/09 01:46:25;;;;;;;57.65;31.63;;;15.00;99.90;;;;;;5038424;28;20029;-71
2023/05/09 01:48:53;;;;;;;60.33;30.83;;;15.00;99.90;;;;;;5042628;28;20024;-70
2023/05/09 01:51:20;;;;;;;61.38;33.10;;;15.00;99.90;;;;;;5043057;28;20029;-71
2023/05/09 01:53:48;;;;;;;63.60;33.03;;;14.90;99.90;;;;;;5048138;28;20029;-70
2023/05/09 01:56:14;;;;;;;64.93;31.63;;;14.90;99.90;;;;;;5048001;28;20035;-70
2023/05/09 01:58:42;;;;;;;64.78;33.53;;;14.90;99.90;;;;;;5039089;28;20029;-69
2023/05/09 02:01:08;;;;;;;67.13;33.17;;;14.80;99.90;;;;;;5042959;28;20043;-70
2023/05/09 02:03:36;;;;;;;61.90;32.95;;;14.80;99.90;;;;;;5039713;28;20025;-69
2023/05/09 02:06:03;;;;;;;68.55;33.10;;;14.80;99.90;;;;;;5036551;28;20103;-70
2023/05/09 02:08:30;;;;;;;63.20;33.03;;;14.80;99.90;;;;;;5039517;28;20076;-69
2023/05/09 02:10:56;;;;;;;67.50;33.08;;;14.80;99.90;;;;;;5042868;28;20013;-69
2023/05/09 02:13:22;;;;;;;62.13;32.17;;;14.80;99.90;;;;;;5040977;28;20416;-70
2023/05/09 02:15:48;;;;;;;63.63;33.55;;;14.70;99.90;;;;;;5039266;28;20022;-69
2023/05/09 02:18:13;;;;;;;62.50;32.05;;;14.70;99.90;;;;;;5039002;28;20057;-69
2023/05/09 02:20:39;;;;;;;67.72;31.27;;;14.70;99.90;;;;;;5040053;28;20041;-69
2023/05/09 02:23:05;;;;;;;56.30;30.20;;;14.70;99.90;;;;;;5040719;28;20039;-70
2023/05/09 02:25:32;;;;;;;63.75;31.85;;;14.70;99.90;;;;;;5038626;28;20099;-71
2023/05/09 02:27:59;;;;;;;59.45;31.15;;;14.70;99.90;;;;;;5039078;28;20029;-70
2023/05/09 02:30:25;;;;;;;59.50;30.05;;;14.70;99.90;;;;;;5038823;28;20040;-70
2023/05/09 02:32:58;;;;;;;58.05;31.20;;;14.70;99.90;;;;;;5033402;28;20025;-71
2023/05/09 02:35:26;;;;;;;59.47;29.17;;;14.70;99.90;;;;;;5040953;28;21232;-69
2023/05/09 02:37:52;;;;;;;58.55;29.95;;;14.70;99.90;;;;;;5038897;28;20105;-68
2023/05/09 02:40:19;;;;;;;57.33;29.95;;;14.70;99.90;;;;;;5038120;28;20061;-68
2023/05/09 02:42:45;;;;;;;59.90;28.85;;;14.70;99.90;;;;;;5038709;28;21034;-67
2023/05/09 02:45:10;;;;;;;56.55;28.55;;;14.70;99.90;;;;;;5041884;28;20032;-68
2023/05/09 02:47:37;;;;;;;54.20;29.40;;;14.70;99.90;;;;;;5038465;28;20108;-68
2023/05/09 02:50:04;;;;;;;57.03;30.00;;;14.60;99.90;;;;;;5038456;28;20032;-68
2023/05/09 02:52:29;;;;;;;54.80;28.05;;;14.70;99.90;;;;;;5038392;28;20030;-68
2023/05/09 02:54:55;;;;;;;48.30;24.65;;;14.70;99.90;;;;;;5043249;28;20517;-68
2023/05/09 02:57:20;;;;;;;55.53;28.65;;;14.70;99.90;;;;;;5044665;28;20025;-69
2023/05/09 02:59:46;;;;;;;52.10;26.42;;;14.70;99.90;;;;;;5037006;28;20090;-68
2023/05/09 03:02:11;;;;;;;50.67;26.65;;;14.60;99.90;;;;;;5042957;28;20045;-69
2023/05/09 03:04:37;;;;;;;48.53;24.90;;;14.60;99.90;;;;;;5045315;28;20025;-69
2023/05/09 03:07:03;;;;;;;50.03;26.52;;;14.60;99.90;;;;;;5043103;28;20354;-68
2023/05/09 03:09:28;;;;;;;48.30;25.63;;;14.60;99.90;;;;;;5045281;28;20128;-69
2023/05/09 03:11:55;;;;;;;52.30;25.67;;;14.60;99.90;;;;;;5045034;28;20025;-68
2023/05/09 03:14:21;;;;;;;45.85;25.58;;;14.60;99.90;;;;;;5047558;28;20099;-69
2023/05/09 03:16:47;;;;;;;44.22;23.75;;;14.60;99.90;;;;;;5042265;28;20113;-68
2023/05/09 03:19:12;;;;;;;44.72;22.45;;;14.60;99.90;;;;;;5043267;28;20025;-69
2023/05/09 03:21:38;;;;;;;44.28;25.33;;;14.60;99.90;;;;;;5044894;28;20068;-69
2023/05/09 03:24:05;;;;;;;41.95;22.33;;;14.60;99.90;;;;;;5046465;28;20025;-69
2023/05/09 03:26:31;;;;;;;43.72;23.75;;;14.60;99.90;;;;;;5045850;28;20025;-70
2023/05/09 03:28:57;;;;;;;42.53;24.10;;;14.70;99.90;;;;;;5034510;28;20120;-69
2023/05/09 03:31:23;;;;;;;45.13;23.98;;;14.70;99.90;;;;;;5044061;28;20103;-69
2023/05/09 03:33:48;;;;;;;40.53;22.02;;;14.70;99.90;;;;;;5046240;28;20476;-69
2023/05/09 03:36:14;;;;;;;45.70;23.33;;;14.70;99.90;;;;;;5044696;28;20037;-70
2023/05/09 03:38:39;;;;;;;43.40;24.13;;;14.80;99.90;;;;;;5044649;28;20036;-69
2023/05/09 03:41:05;;;;;;;39.38;22.25;;;14.80;99.90;;;;;;5042603;28;20481;-70
2023/05/09 03:43:31;;;;;;;41.05;22.88;;;14.80;99.90;;;;;;5045442;28;20100;-69
2023/05/09 03:45:56;;;;;;;42.50;23.42;;;14.80;99.90;;;;;;5043398;28;20107;-69
2023/05/09 03:48:22;;;;;;;42.72;24.05;;;14.80;99.90;;;;;;5041625;28;20021;-70
2023/05/09 03:50:47;;;;;;;45.58;23.40;;;14.80;99.90;;;;;;5042916;28;20025;-69
2023/05/09 03:53:13;;;;;;;42.17;23.05;;;14.80;99.90;;;;;;5042608;28;20024;-68
2023/05/09 03:55:39;;;;;;;45.92;23.33;;;14.80;99.90;;;;;;5044629;28;20549;-69
2023/05/09 03:58:05;;;;;;;41.85;22.67;;;14.80;99.90;;;;;;5032281;28;20443;-69
2023/05/09 04:00:31;;;;;;;39.25;21.77;;;14.80;99.90;;;;;;5030799;28;20041;-69
2023/05/09 04:02:56;;;;;;;40.28;23.42;;;14.70;99.90;;;;;;5046779;28;20045;-69
2023/05/09 04:05:22;;;;;;;41.95;22.60;;;14.70;99.90;;;;;;5041900;28;20029;-70
2023/05/09 04:07:47;;;;;;;37.50;20.92;;;14.70;99.90;;;;;;5032115;28;20091;-69
2023/05/09 04:10:13;;;;;;;40.03;23.15;;;14.80;99.90;;;;;;5032078;28;20470;-70
2023/05/09 04:12:39;;;;;;;42.08;22.13;;;14.80;99.90;;;;;;5032027;28;20034;-70
2023/05/09 04:15:07;;;;;;;39.42;22.65;;;14.80;99.90;;;;;;5029527;28;20378;-70
2023/05/09 04:17:33;;;;;;;39.65;22.45;;;14.80;99.90;;;;;;5032159;28;20087;-70
2023/05/09 04:19:59;;;;;;;37.58;20.70;;;14.90;99.90;;;;;;5024371;28;20030;-69
2023/05/09 04:22:24;;;;;;;33.28;19.35;;;14.90;99.90;;;;;;5032027;28;20022;-70
2023/05/09 04:24:50;;;;;;;37.05;20.85;;;14.90;99.90;;;;;;5031653;28;20026;-70
2023/05/09 04:27:15;;;;;;;33.40;19.38;;;14.90;99.90;;;;;;5032204;28;20497;-70
2023/05/09 04:29:41;;;;;;;36.28;19.90;;;14.90;99.90;;;;;;5031828;28;20021;-70
2023/05/09 04:32:06;;;;;;;34.40;18.42;;;14.90;99.90;;;;;;5032027;28;20053;-70
2023/05/09 04:34:32;;;;;;;34.97;19.83;;;14.90;99.90;;;;;;5031691;28;20479;-71
2023/05/09 04:36:57;;;;;;;34.30;20.38;;;14.90;99.90;;;;;;5031739;28;20736;-69
2023/05/09 04:39:23;;;;;;;34.88;20.50;;;15.00;99.90;;;;;;5031330;28;20037;-69
2023/05/09 04:41:48;;;;;;;34.15;18.90;;;15.00;99.90;;;;;;5031074;28;20068;-70
2023/05/09 04:44:15;;;;;;;37.53;20.50;;;15.00;99.90;;;;;;5029723;28;20111;-69
2023/05/09 04:46:40;;;;;;;38.80;20.23;;;15.00;99.90;;;;;;5031357;28;20474;-69
2023/05/09 04:49:06;;;;;;;37.17;18.73;;;14.90;99.90;;;;;;5031767;28;20033;-69
2023/05/09 04:51:32;;;;;;;36.50;18.90;;;14.90;99.90;;;;;;5023550;28;20465;-69
2023/05/09 04:53:57;;;;;;;33.45;18.60;;;14.90;99.90;;;;;;5030078;28;20021;-69
2023/05/09 04:56:23;;;;;;;36.83;20.20;;;14.90;99.90;;;;;;5028749;28;20029;-69
2023/05/09 04:58:49;;;;;;;35.75;20.17;;;14.90;99.90;;;;;;5027169;28;20052;-68
2023/05/09 05:01:15;;;;;;;32.33;18.95;;;14.90;99.90;;;;;;5027709;28;20041;-69
2023/05/09 05:03:41;;;;;;;31.75;19.55;;;14.90;99.90;;;;;;5032597;28;20476;-69
2023/05/09 05:06:06;;;;;;;36.97;20.25;;;14.90;99.90;;;;;;5031869;28;20041;-68
2023/05/09 05:08:32;;;;;;;38.20;22.23;;;14.90;99.90;;;;;;5033976;28;20088;-69
2023/05/09 05:10:58;;;;;;;35.40;19.70;;;14.90;99.90;;;;;;5030538;28;20025;-69
2023/05/09 05:13:24;;;;;;;33.15;19.63;;;14.90;99.90;;;;;;5030527;28;20482;-68
2023/05/09 05:15:51;;;;;;;32.55;18.77;;;14.90;99.90;;;;;;5033976;28;20389;-68
2023/05/09 05:18:17;;;;;;;32.60;18.98;;;14.90;99.90;;;;;;5033284;28;20029;-67
2023/05/09 05:20:42;;;;;;;32.75;18.50;;;14.90;99.90;;;;;;5034549;28;20033;-68
2023/05/09 05:23:08;;;;;;;34.83;19.95;;;14.80;99.90;;;;;;5034995;28;20079;-68
2023/05/09 05:25:34;;;;;;;31.13;17.48;;;14.80;99.90;;;;;;5035036;28;20045;-68
2023/05/09 05:27:59;;;;;;;32.97;18.55;;;14.80;99.90;;;;;;5034094;28;20440;-68
2023/05/09 05:30:25;;;;;;;32.65;17.95;;;14.80;99.90;;;;;;5034118;28;20482;-68
2023/05/09 05:32:51;;;;;;;33.08;19.70;;;14.70;99.90;;;;;;5032721;28;20450;-68
2023/05/09 05:35:16;;;;;;;34.00;19.70;;;14.60;99.90;;;;;;5034585;28;20029;-68
2023/05/09 05:37:43;;;;;;;30.42;17.30;;;14.60;99.90;;;;;;5032442;28;20509;-68
2023/05/09 05:40:09;;;;;;;28.45;14.32;;;14.60;99.90;;;;;;5034159;28;20061;-68
2023/05/09 05:42:34;;;;;;;32.30;17.85;;;14.50;99.90;;;;;;5034246;28;20123;-68
2023/05/09 05:45:03;;;;;;;35.40;18.90;;;14.40;99.90;;;;;;5028402;28;20414;-68
2023/05/09 05:47:33;;;;;;;30.25;16.92;;;14.40;99.90;;;;;;5014635;28;20073;-68
2023/05/09 05:49:59;;;;;;;36.25;19.75;;;14.40;99.90;;;;;;5014382;28;20029;-69
2023/05/09 05:52:26;;;;;;;38.70;20.73;;;14.40;99.90;;;;;;5014217;28;20038;-67
2023/05/09 05:54:54;;;;;;;38.08;19.73;;;14.40;99.90;;;;;;5021270;28;20056;-67
2023/05/09 05:57:20;;;;;;;38.45;20.98;;;14.50;99.90;;;;;;5027060;28;20041;-67
2023/05/09 05:59:47;;;;;;;34.97;20.58;;;14.50;99.90;;;;;;5032818;28;20044;-67
2023/05/09 06:02:13;;;;;;;40.83;20.42;;;14.50;99.90;;;;;;5033412;28;20034;-69
2023/05/09 06:04:38;;;;;;;38.38;20.70;;;14.50;99.90;;;;;;5034029;28;20033;-68
2023/05/09 06:07:06;;;;;;;41.60;22.00;;;14.60;99.90;;;;;;5034118;28;20025;-68
2023/05/09 06:09:31;;;;;;;40.38;23.20;;;14.50;99.90;;;;;;5034271;28;20026;-67
2023/05/09 06:11:57;;;;;;;36.00;17.92;;;14.60;99.90;;;;;;5033731;28;20059;-68
2023/05/09 06:14:22;;;;;;;37.47;21.38;;;14.60;99.90;;;;;;5033508;28;20036;-68
2023/05/09 06:16:48;;;;;;;41.38;22.67;;;14.60;99.90;;;;;;5034123;28;20032;-67
2023/05/09 06:19:13;;;;;;;40.15;21.17;;;14.60;99.90;;;;;;5034050;28;20080;-67
2023/05/09 06:21:39;;;;;;;42.72;21.02;;;14.60;99.90;;;;;;5033649;28;20048;-67
2023/05/09 06:24:05;;;;;;;36.88;17.23;;;14.60;99.90;;;;;;5033880;28;20099;-67
2023/05/09 06:26:30;;;;;;;35.15;19.08;;;14.60;99.90;;;;;;5033643;28;20064;-69
2023/05/09 06:28:56;;;;;;;38.45;20.38;;;14.60;99.90;;;;;;5033250;28;20026;-68
2023/05/09 06:31:22;;;;;;;33.92;17.52;;;14.50;99.90;;;;;;5033842;28;20132;-68
2023/05/09 06:33:47;;;;;;;39.03;20.40;;;14.50;99.90;;;;;;5033494;28;20025;-67
2023/05/09 06:36:13;;;;;;;37.03;18.38;;;14.50;99.90;;;;;;5033533;28;20052;-68
2023/05/09 06:38:39;;;;;;;38.13;21.88;;;14.60;99.90;;;;;;5033783;28;20022;-68
2023/05/09 06:41:04;;;;;;;34.45;17.02;;;14.50;99.90;;;;;;5032854;28;20037;-67
2023/05/09 06:43:30;;;;;;;37.65;19.45;;;14.50;99.90;;;;;;5033461;28;20029;-68
2023/05/09 06:45:55;;;;;;;34.42;19.10;;;14.60;99.90;;;;;;5033422;28;20044;-69
2023/05/09 06:48:22;;;;;;;31.45;17.85;;;14.50;99.90;;;;;;5033544;28;20116;-69
2023/05/09 06:50:48;;;;;;;33.75;15.90;;;14.50;99.90;;;;;;5032963;28;20040;-68
2023/05/09 06:53:14;;;;;;;37.33;20.88;;;14.40;99.90;;;;;;5033141;28;20029;-68
2023/05/09 06:55:40;;;;;;;42.40;22.75;;;14.40;99.90;;;;;;5032823;28;20055;-68
2023/05/09 06:58:06;;;;;;;41.45;22.50;;;14.40;99.90;;;;;;5033261;28;20104;-67
2023/05/09 07:00:31;;;;;;;37.17;19.33;;;14.50;99.90;;;;;;5033198;28;20038;-68
2023/05/09 07:02:57;;;;;;;37.75;20.25;;;14.50;99.90;;;;;;5033315;28;20025;-69
2023/05/09 07:05:22;;;;;;;42.47;21.20;;;14.50;99.90;;;;;;5033156;28;20066;-69
2023/05/09 07:07:48;;;;;;;39.15;21.13;;;14.50;99.90;;;;;;5033228;28;20035;-69
2023/05/09 07:10:14;;;;;;;33.42;18.92;;;14.50;99.90;;;;;;5032791;28;20030;-68
2023/05/09 07:12:40;;;;;;;29.80;15.68;;;14.50;99.90;;;;;;5033055;28;20394;-69
2023/05/09 07:15:06;;;;;;;35.05;18.45;;;14.50;99.90;;;;;;5032887;28;20030;-69
2023/05/09 07:17:32;;;;;;;28.75;14.20;;;14.40;99.90;;;;;;5032934;28;20037;-69
2023/05/09 07:19:57;;;;;;;31.42;17.25;;;14.50;99.90;;;;;;5032898;28;20033;-70
2023/05/09 07:22:23;;;;;;;31.92;17.95;;;14.40;99.90;;;;;;5032642;28;20033;-67
2023/05/09 07:24:49;;;;;;;30.55;14.27;;;14.40;99.90;;;;;;5032321;28;20033;-69
2023/05/09 07:27:15;;;;;;;32.97;16.08;;;14.40;99.90;;;;;;5031899;28;20017;-67
2023/05/09 07:29:40;;;;;;;29.17;13.50;;;14.40;99.90;;;;;;5030730;28;20079;-67
2023/05/09 07:32:06;;;;;;;31.48;12.75;;;14.40;99.90;;;;;;5032840;28;20033;-68
2023/05/09 07:34:32;;;;;;;27.23;12.45;;;14.50;99.90;;;;;;5032458;28;20397;-68
2023/05/09 07:36:57;;;;;;;26.27;14.00;;;14.40;99.90;;;;;;5032582;28;20088;-68
2023/05/09 07:39:23;;;;;;;30.20;15.48;;;14.30;99.90;;;;;;5030637;28;20025;-68
2023/05/09 07:41:48;;;;;;;29.77;15.15;;;14.40;99.90;;;;;;5032316;28;20037;-70
2023/05/09 07:44:14;;;;;;;28.70;15.85;;;14.50;99.90;;;;;;5032085;28;20112;-68
2023/05/09 07:46:40;;;;;;;29.10;14.77;;;14.50;99.90;;;;;;5032411;28;20041;-69
2023/05/09 07:49:06;;;;;;;27.35;13.40;;;14.50;99.90;;;;;;5032302;28;20032;-68
2023/05/09 07:51:32;;;;;;;20.67;11.23;;;14.50;99.90;;;;;;5032484;28;20029;-68
2023/05/09 07:53:58;;;;;;;19.55;9.07;;;14.50;99.90;;;;;;5032147;28;20079;-70
2023/05/09 07:56:23;;;;;;;14.25;7.85;;;14.50;99.90;;;;;;5032408;28;20464;-69
2023/05/09 07:58:49;;;;;;;22.95;12.60;;;14.40;99.90;;;;;;5032298;28;20381;-68
2023/05/09 08:01:14;;;;;;;21.05;8.80;;;14.30;99.90;;;;;;5032290;28;20049;-68
2023/05/09 08:03:40;;;;;;;21.80;9.75;;;14.40;99.90;;;;;;5030803;28;20032;-68
2023/05/09 08:06:06;;;;;;;18.48;8.07;;;14.40;99.90;;;;;;5032121;28;20108;-68
2023/05/09 08:08:32;;;;;;;13.40;6.70;;;14.30;99.90;;;;;;5032262;28;20033;-69
2023/05/09 08:10:58;;;;;;;21.17;10.23;;;14.40;99.90;;;;;;5032232;28;20025;-69
2023/05/09 08:13:24;;;;;;;19.10;9.27;;;14.30;99.90;;;;;;5032141;28;20053;-67
2023/05/09 08:15:49;;;;;;;16.98;7.90;;;14.20;99.90;;;;;;5031944;28;20097;-68
2023/05/09 08:18:16;;;;;;;19.65;9.68;;;14.20;99.90;;;;;;5032287;28;20370;-68
2023/05/09 08:20:42;;;;;;;10.40;5.28;;;14.20;99.90;;;;;;5032002;28;20029;-68
2023/05/09 08:23:07;;;;;;;15.88;7.20;;;14.20;99.90;;;;;;5031497;28;20355;-68
2023/05/09 08:25:33;;;;;;;13.73;7.47;;;14.20;99.90;;;;;;5032264;28;20029;-68
2023/05/09 08:27:59;;;;;;;18.67;7.38;;;14.20;99.90;;;;;;5032006;28;20033;-68
2023/05/09 08:30:24;;;;;;;16.13;6.50;;;14.10;99.90;;;;;;5031863;28;20033;-68
2023/05/09 08:32:50;;;;;;;14.23;6.03;;;14.10;99.90;;;;;;5031918;28;20041;-67
2023/05/09 08:35:16;;;;;;;16.33;6.43;;;14.10;99.90;;;;;;5031902;28;20079;-69
2023/05/09 08:37:41;;;;;;;15.57;7.63;;;14.20;99.90;;;;;;5032704;28;20389;-67
2023/05/09 08:40:08;;;;;;;21.80;9.63;;;14.20;99.90;;;;;;5035825;28;20025;-68
2023/05/09 08:42:37;;;;;;;19.85;8.80;;;14.30;99.90;;;;;;5035935;28;20112;-68
2023/05/09 08:45:10;;;;;;;18.67;9.05;;;14.40;99.90;;;;;;5035519;28;20480;-70
2023/05/09 08:47:39;;;;;;;20.55;10.32;;;14.50;99.90;;;;;;5035691;28;20037;-69
2023/05/09 08:50:05;;;;;;;17.85;9.55;;;14.50;99.90;;;;;;5035324;28;20036;-67
2023/05/09 08:52:32;;;;;;;19.98;10.00;;;14.60;99.90;;;;;;5035175;28;20029;-68
2023/05/09 08:54:59;;;;;;;22.50;11.02;;;14.70;99.90;;;;;;5035621;28;20377;-68
2023/05/09 08:57:26;;;;;;;20.42;10.52;;;14.70;99.90;;;;;;5035476;28;20039;-68
2023/05/09 08:59:52;;;;;;;20.73;11.50;;;14.80;99.90;;;;;;5034003;28;20425;-70
2023/05/09 09:02:18;;;;;;;23.08;12.23;;;14.80;99.90;;;;;;5035175;28;20048;-68
2023/05/09 09:04:44;;;;;;;21.27;9.68;;;14.80;99.90;;;;;;5034240;28;20697;-68
2023/05/09 09:07:12;;;;;;;22.98;12.32;;;14.90;99.90;;;;;;5035453;28;20112;-68
2023/05/09 09:09:43;;;;;;;24.38;13.35;;;14.90;99.90;;;;;;5035525;28;20113;-68
2023/05/09 09:12:10;;;;;;;25.30;14.30;;;14.90;99.90;;;;;;5035582;28;20052;-69
2023/05/09 09:14:39;;;;;;;24.58;14.18;;;15.00;99.90;;;;;;5035041;28;20029;-69
2023/05/09 09:17:08;;;;;;;25.23;14.25;;;15.00;99.90;;;;;;5035266;28;20124;-68
2023/05/09 09:19:35;;;;;;;25.60;14.50;;;15.10;99.90;;;;;;5035665;28;20036;-68
2023/05/09 09:22:03;;;;;;;23.63;15.13;;;15.10;99.90;;;;;;5034993;28;20038;-68
2023/05/09 09:24:30;;;;;;;23.23;13.57;;;15.20;99.90;;;;;;5035180;28;20102;-68
2023/05/09 09:26:55;;;;;;;23.70;13.88;;;15.20;99.90;;;;;;5035290;28;20082;-68
2023/05/09 09:29:22;;;;;;;25.02;15.65;;;15.20;99.90;;;;;;5035063;28;20025;-68
2023/05/09 09:31:53;;;;;;;24.73;15.35;;;15.20;99.90;;;;;;5034811;28;20032;-70
2023/05/09 09:34:21;;;;;;;23.65;12.27;;;15.30;99.90;;;;;;5034851;28;20426;-69
2023/05/09 09:36:47;;;;;;;22.92;13.70;;;15.30;99.90;;;;;;5035010;28;20049;-68
2023/05/09 09:39:13;;;;;;;24.08;14.32;;;15.30;99.90;;;;;;5035030;28;20032;-68
2023/05/09 09:41:40;;;;;;;21.85;13.07;;;15.30;99.90;;;;;;5034892;28;20374;-68
2023/05/09 09:44:07;;;;;;;24.38;13.95;;;15.20;99.90;;;;;;5034930;28;20239;-69
2023/05/09 09:47:08;;;;;;;23.40;14.65;;;15.30;99.90;;;;;;5034765;28;20529;-68
2023/05/09 09:49:33;;;;;;;19.52;10.52;;;15.30;99.90;;;;;;5033369;28;20531;-68
2023/05/09 09:51:59;;;;;;;22.23;11.90;;;15.20;99.90;;;;;;5034476;28;20037;-68
2023/05/09 09:54:30;;;;;;;21.63;12.23;;;15.10;99.90;;;;;;5034535;28;20029;-68
2023/05/09 09:56:56;;;;;;;22.77;14.13;;;15.10;99.90;;;;;;5033325;28;20053;-69
2023/05/09 09:59:24;;;;;;;20.35;12.45;;;15.10;99.90;;;;;;5034557;28;20480;-68
2023/05/09 10:01:59;;;;;;;23.55;12.50;;;15.10;99.90;;;;;;5034618;28;20175;-68
2023/05/09 10:04:30;;;;;;;19.65;11.13;;;15.10;99.90;;;;;;5034451;28;20030;-71
2023/05/09 10:07:04;;;;;;;18.60;10.45;;;15.10;99.90;;;;;;5034206;28;20504;-69
2023/05/09 10:09:31;;;;;;;19.77;11.93;;;15.10;99.90;;;;;;5034373;28;20124;-69
2023/05/09 10:12:01;;;;;;;20.90;12.07;;;15.10;99.90;;;;;;5034650;28;20033;-68
2023/05/09 10:14:29;;;;;;;20.90;12.05;;;15.10;99.90;;;;;;5033042;28;20481;-70
2023/05/09 10:16:57;;;;;;;20.77;12.25;;;15.10;99.90;;;;;;5034317;28;20026;-70
2023/05/09 10:19:25;;;;;;;21.05;10.98;;;15.10;99.90;;;;;;5034164;28;20032;-71
2023/05/09 10:21:54;;;;;;;22.38;12.35;;;15.10;99.90;;;;;;5033958;28;20049;-70
2023/05/09 10:24:27;;;;;;;21.65;11.38;;;15.20;99.90;;;;;;5034199;28;20024;-69
2023/05/09 10:27:05;;;;;;;20.52;12.57;;;15.20;99.90;;;;;;5033796;28;20113;-68
2023/05/09 10:29:43;;;;;;;22.75;13.10;;;15.10;99.90;;;;;;5034094;28;20033;-70
2023/05/09 10:32:16;;;;;;;24.85;12.70;;;15.20;99.90;;;;;;5032650;28;20488;-69
2023/05/09 10:34:46;;;;;;;19.65;11.13;;;15.10;99.90;;;;;;5033971;28;20022;-71
2023/05/09 10:37:12;;;;;;;23.80;12.20;;;15.20;99.90;;;;;;5032023;28;20412;-69
2023/05/09 10:39:40;;;;;;;23.92;13.30;;;15.20;99.90;;;;;;5033872;28;20029;-69
2023/05/09 10:42:07;;;;;;;19.30;9.23;;;15.20;99.90;;;;;;5033643;28;20091;-69
2023/05/09 10:44:33;;;;;;;22.77;13.30;;;15.10;99.90;;;;;;5033402;28;20056;-69
2023/05/09 10:47:00;;;;;;;21.50;11.93;;;15.20;99.90;;;;;;5033662;28;20037;-69
2023/05/09 10:49:26;;;;;;;20.10;11.02;;;15.20;99.90;;;;;;5034014;28;20526;-70
2023/05/09 10:51:52;;;;;;;19.13;11.55;;;15.20;99.90;;;;;;5033632;28;20079;-70
2023/05/09 10:54:31;;;;;;;21.20;12.35;;;15.20;99.90;;;;;;5033596;28;20022;-71
2023/05/09 10:56:56;;;;;;;20.80;12.48;;;15.20;99.90;;;;;;5033486;28;20029;-70
2023/05/09 10:59:40;;;;;;;21.25;10.32;;;15.30;99.90;;;;;;5033258;28;20025;-69
2023/05/09 11:02:17;;;;;;;21.17;12.02;;;15.40;99.90;;;;;;5033288;28;20128;-69
2023/05/09 11:04:44;;;;;;;22.90;13.18;;;15.30;99.90;;;;;;5033262;28;20547;-68
2023/05/09 11:07:24;;;;;;;18.95;10.65;;;15.30;99.90;;;;;;5033387;28;20025;-70
2023/05/09 11:09:51;;;;;;;19.33;11.57;;;15.30;99.90;;;;;;5032953;28;20055;-71
2023/05/09 11:12:22;;;;;;;21.10;12.65;;;15.30;99.90;;;;;;5033339;28;20029;-69
2023/05/09 11:14:51;;;;;;;22.97;13.07;;;15.30;99.90;;;;;;5033298;28;20096;-71
2023/05/09 11:17:20;;;;;;;21.67;13.07;;;15.40;99.90;;;;;;5032810;28;20430;-71
2023/05/09 11:19:45;;;;;;;18.85;11.25;;;15.40;99.90;;;;;;5032945;28;20105;-69
2023/05/09 11:22:23;;;;;;;21.92;11.82;;;15.40;99.90;;;;;;5032467;28;20438;-71
2023/05/09 11:24:51;;;;;;;23.33;13.48;;;15.50;99.90;;;;;;5033065;28;20047;-70
2023/05/09 11:27:20;;;;;;;20.80;11.57;;;15.50;99.90;;;;;;5032948;28;20100;-69
2023/05/09 11:29:57;;;;;;;17.25;9.30;;;15.60;99.90;;;;;;5032749;28;20033;-70
2023/05/09 11:32:39;;;;;;;22.08;12.88;;;15.60;99.90;;;;;;5031735;28;20533;-70
2023/05/09 11:35:32;;;;;;;18.85;11.23;;;15.50;99.90;;;;;;5032859;28;20116;-70
2023/05/09 11:38:02;;;;;;;19.15;11.45;;;15.50;99.90;;;;;;5031507;28;20140;-70
2023/05/09 11:40:29;;;;;;;19.40;10.45;;;15.50;99.90;;;;;;5032587;28;20033;-70
2023/05/09 11:42:57;;;;;;;19.15;10.95;;;15.50;99.90;;;;;;5032512;28;20026;-70
2023/05/09 11:45:26;;;;;;;19.40;9.95;;;15.50;99.90;;;;;;5032719;28;20473;-70
2023/05/09 11:47:51;;;;;;;17.92;9.40;;;15.50;99.90;;;;;;5031585;28;20060;-70
2023/05/09 11:50:18;;;;;;;20.45;12.32;;;15.50;99.90;;;;;;5032352;28;20068;-69
2023/05/09 11:52:46;;;;;;;20.80;11.13;;;15.50;99.90;;;;;;5031046;28;20029;-72
2023/05/09 11:55:17;;;;;;;20.13;11.68;;;15.60;99.90;;;;;;5032459;28;20037;-72
2023/05/09 11:57:48;;;;;;;17.25;9.20;;;15.70;99.90;;;;;;5032152;28;20021;-71
2023/05/09 12:00:17;;;;;;;21.63;12.88;;;15.70;99.90;;;;;;5032255;28;20084;-70
2023/05/09 12:02:44;;;;;;;19.52;11.15;;;15.60;99.90;;;;;;5032525;28;20032;-71
2023/05/09 12:05:16;;;;;;;16.60;9.60;;;15.70;99.90;;;;;;5032460;28;20046;-70
2023/05/09 12:07:42;;;;;;;17.83;10.55;;;15.70;99.90;;;;;;5032055;28;20378;-70
2023/05/09 12:10:09;;;;;;;15.55;8.73;;;15.60;99.90;;;;;;5031902;28;20041;-70
2023/05/09 12:12:36;;;;;;;15.20;8.57;;;15.50;99.90;;;;;;5032980;28;20481;-70
2023/05/09 12:15:03;;;;;;;18.00;9.38;;;15.50;99.90;;;;;;5036642;28;20052;-70
2023/05/09 12:17:29;;;;;;;17.33;10.23;;;15.40;99.90;;;;;;5034928;28;20038;-70
2023/05/09 12:19:58;;;;;;;21.13;13.02;;;15.40;99.90;;;;;;5036356;28;20072;-69
2023/05/09 12:22:24;;;;;;;17.33;9.23;;;15.30;99.90;;;;;;5036399;28;20129;-71
2023/05/09 12:24:49;;;;;;;18.75;10.43;;;15.30;99.90;;;;;;5036226;28;20113;-71
2023/05/09 12:27:15;;;;;;;16.75;9.60;;;15.30;99.90;;;;;;5036085;28;20374;-71
2023/05/09 12:29:44;;;;;;;17.48;9.20;;;15.40;99.90;;;;;;5036125;28;20385;-72